sensor_id;sensor_type;location;lat;lon;timestamp;pressure;altitude;pressure_sealevel;temperature;humidity
141;BME280;65;48.778;9.160;2023-05-11T12:03:03;98309.78;;;17.30;77.99
141;BME280;65;48.778;9.160;2023-05-11T12:05:51;98312.38;;;17.01;82.12
141;BME280;65;48.778;9.160;2023-05-11T12:08:41;98306.97;;;17.31;80.57
141;BME280;65;48.778;9.160;2023-05-11T12:11:28;98302.00;;;17.48;72.34
141;BME280;65;48.778;9.160;2023-05-11T12:14:14;98300.50;;;17.74;74.67
141;BME280;65;48.778;9.160;2023-05-11T12:17:05;98303.31;;;17.82;70.61
141;BME280;65;48.778;9.160;2023-05-11T12:20:34;98302.84;;;17.58;70.22
141;BME280;65;48.778;9.160;2023-05-11T12:23:20;98302.09;;;17.36;71.86
141;BME280;65;48.778;9.160;2023-05-11T12:26:23;98302.69;;;17.50;70.30
141;BME280;65;48.778;9.160;2023-05-11T12:29:13;98302.53;;;17.42;71.97
141;BME280;65;48.778;9.160;2023-05-11T12:31:59;98300.44;;;17.05;70.78
141;BME280;65;48.778;9.160;2023-05-11T12:35:04;98298.22;;;16.80;79.68
141;BME280;65;48.778;9.160;2023-05-11T12:37:50;98295.59;;;16.89;74.78
141;BME280;65;48.778;9.160;2023-05-11T12:40:36;98298.59;;;17.05;71.93
141;BME280;65;48.778;9.160;2023-05-11T12:43:23;98294.75;;;16.89;71.55
141;BME280;65;48.778;9.160;2023-05-11T12:46:09;98289.41;;;16.89;79.10
141;BME280;65;48.778;9.160;2023-05-11T12:48:55;98290.47;;;17.07;72.43
141;BME280;65;48.778;9.160;2023-05-11T12:54:36;98274.59;;;17.15;73.13
141;BME280;65;48.778;9.160;2023-05-11T12:57:24;98276.97;;;17.08;71.92
141;BME280;65;48.778;9.160;2023-05-11T13:00:13;98271.50;;;17.10;70.70
141;BME280;65;48.778;9.160;2023-05-11T13:02:59;98268.94;;;16.99;70.04
141;BME280;65;48.778;9.160;2023-05-11T13:05:44;98270.59;;;16.90;75.46
141;BME280;65;48.778;9.160;2023-05-11T13:08:30;98268.97;;;17.08;68.40
141;BME280;65;48.778;9.160;2023-05-11T13:11:23;98264.34;;;17.11;69.82
141;BME280;65;48.778;9.160;2023-05-11T13:14:16;98261.06;;;16.97;72.13
141;BME280;65;48.778;9.160;2023-05-11T13:17:02;98257.28;;;16.69;71.16
141;BME280;65;48.778;9.160;2023-05-11T13:19:48;98259.34;;;16.87;70.90
141;BME280;65;48.778;9.160;2023-05-11T13:22:34;98253.81;;;16.79;65.85
141;BME280;65;48.778;9.160;2023-05-11T13:25:20;98255.06;;;17.15;67.86
141;BME280;65;48.778;9.160;2023-05-11T13:28:06;98245.44;;;16.93;69.46
141;BME280;65;48.778;9.160;2023-05-11T13:30:59;98252.50;;;16.73;72.53
141;BME280;65;48.778;9.160;2023-05-11T13:33:48;98251.53;;;17.14;72.85
141;BME280;65;48.778;9.160;2023-05-11T13:36:34;98253.19;;;17.55;63.51
141;BME280;65;48.778;9.160;2023-05-11T13:39:20;98249.81;;;17.63;61.63
141;BME280;65;48.778;9.160;2023-05-11T13:42:06;98245.88;;;17.57;62.45
141;BME280;65;48.778;9.160;2023-05-11T13:44:52;98238.84;;;17.47;61.08
141;BME280;65;48.778;9.160;2023-05-11T13:47:37;98228.09;;;17.27;64.29
141;BME280;65;48.778;9.160;2023-05-11T13:50:25;98234.31;;;17.37;68.74
141;BME280;65;48.778;9.160;2023-05-11T13:53:11;98233.56;;;17.16;63.63
141;BME280;65;48.778;9.160;2023-05-11T13:55:56;98228.06;;;17.08;68.77
141;BME280;65;48.778;9.160;2023-05-11T13:58:42;98219.66;;;17.22;62.32
141;BME280;65;48.778;9.160;2023-05-11T14:01:28;98222.03;;;17.25;69.52
141;BME280;65;48.778;9.160;2023-05-11T14:04:16;98221.81;;;17.48;68.57
141;BME280;65;48.778;9.160;2023-05-11T14:07:01;98215.34;;;17.60;62.21
141;BME280;65;48.778;9.160;2023-05-11T14:09:47;98222.09;;;17.45;64.69
141;BME280;65;48.778;9.160;2023-05-11T14:12:34;98215.31;;;17.31;62.61
141;BME280;65;48.778;9.160;2023-05-11T14:15:20;98216.59;;;17.36;61.50
141;BME280;65;48.778;9.160;2023-05-11T14:18:06;98211.94;;;17.29;62.09
141;BME280;65;48.778;9.160;2023-05-11T14:20:53;98220.97;;;17.37;61.44
141;BME280;65;48.778;9.160;2023-05-11T14:23:38;98216.63;;;17.46;65.32
141;BME280;65;48.778;9.160;2023-05-11T14:26:24;98210.16;;;17.49;65.73
141;BME280;65;48.778;9.160;2023-05-11T14:29:10;98206.06;;;17.54;64.43
141;BME280;65;48.778;9.160;2023-05-11T14:31:56;98209.63;;;17.74;65.84
141;BME280;65;48.778;9.160;2023-05-11T14:34:41;98204.66;;;17.60;64.64
141;BME280;65;48.778;9.160;2023-05-11T14:37:27;98207.34;;;17.50;59.54
141;BME280;65;48.778;9.160;2023-05-11T14:40:13;98198.72;;;17.27;61.58
141;BME280;65;48.778;9.160;2023-05-11T14:42:59;98197.50;;;17.41;63.22
141;BME280;65;48.778;9.160;2023-05-11T14:45:44;98192.72;;;17.54;60.59
141;BME280;65;48.778;9.160;2023-05-11T14:48:30;98196.59;;;17.21;61.88
141;BME280;65;48.778;9.160;2023-05-11T14:51:16;98182.94;;;17.05;62.74
141;BME280;65;48.778;9.160;2023-05-11T14:54:02;98195.47;;;17.14;62.74
141;BME280;65;48.778;9.160;2023-05-11T14:56:48;98189.56;;;17.20;64.41
141;BME280;65;48.778;9.160;2023-05-11T14:59:38;98184.56;;;17.36;59.69
141;BME280;65;48.778;9.160;2023-05-11T15:02:24;98186.53;;;17.54;62.88
141;BME280;65;48.778;9.160;2023-05-11T15:05:10;98184.84;;;17.53;58.87
141;BME280;65;48.778;9.160;2023-05-11T15:07:55;98182.31;;;17.42;65.86
141;BME280;65;48.778;9.160;2023-05-11T15:10:41;98184.94;;;17.32;65.64
141;BME280;65;48.778;9.160;2023-05-11T15:13:27;98183.56;;;17.37;59.34
141;BME280;65;48.778;9.160;2023-05-11T15:16:13;98187.66;;;17.51;59.21
141;BME280;65;48.778;9.160;2023-05-11T15:18:59;98191.16;;;17.42;60.91
141;BME280;65;48.778;9.160;2023-05-11T15:21:44;98189.25;;;17.04;63.71
141;BME280;65;48.778;9.160;2023-05-11T15:24:30;98185.28;;;16.89;61.02
141;BME280;65;48.778;9.160;2023-05-11T15:27:16;98185.50;;;16.76;64.22
141;BME280;65;48.778;9.160;2023-05-11T15:30:02;98184.09;;;16.41;66.83
141;BME280;65;48.778;9.160;2023-05-11T15:32:51;98176.56;;;16.26;67.38
141;BME280;65;48.778;9.160;2023-05-11T15:35:37;98178.13;;;16.59;70.33
141;BME280;65;48.778;9.160;2023-05-11T15:38:22;98182.81;;;16.66;66.20
141;BME280;65;48.778;9.160;2023-05-11T15:41:08;98176.75;;;16.34;64.97
141;BME280;65;48.778;9.160;2023-05-11T15:43:54;98170.66;;;16.22;65.22
141;BME280;65;48.778;9.160;2023-05-11T15:46:40;98178.97;;;16.29;68.36
141;BME280;65;48.778;9.160;2023-05-11T15:49:26;98187.16;;;16.16;68.52
141;BME280;65;48.778;9.160;2023-05-11T15:52:12;98189.13;;;16.14;63.77
141;BME280;65;48.778;9.160;2023-05-11T15:54:58;98188.84;;;16.17;66.96
141;BME280;65;48.778;9.160;2023-05-11T15:57:44;98186.31;;;16.16;67.94
141;BME280;65;48.778;9.160;2023-05-11T16:00:29;98192.56;;;16.05;70.88
141;BME280;65;48.778;9.160;2023-05-11T16:03:15;98192.19;;;16.09;65.57
141;BME280;65;48.778;9.160;2023-05-11T16:06:01;98194.94;;;16.19;66.51
141;BME280;65;48.778;9.160;2023-05-11T16:08:47;98193.59;;;16.13;69.15
141;BME280;65;48.778;9.160;2023-05-11T16:11:33;98184.00;;;16.22;65.91
141;BME280;65;48.778;9.160;2023-05-11T16:14:18;98179.91;;;15.97;71.39
141;BME280;65;48.778;9.160;2023-05-11T16:17:05;98181.66;;;15.87;68.73
141;BME280;65;48.778;9.160;2023-05-11T16:19:51;98188.44;;;15.70;72.47
141;BME280;65;48.778;9.160;2023-05-11T16:22:37;98188.22;;;15.62;72.76
141;BME280;65;48.778;9.160;2023-05-11T16:25:23;98184.44;;;15.54;71.49
141;BME280;65;48.778;9.160;2023-05-11T16:28:09;98194.56;;;15.39;71.13
141;BME280;65;48.778;9.160;2023-05-11T16:30:55;98191.38;;;15.45;70.43
141;BME280;65;48.778;9.160;2023-05-11T16:33:40;98194.25;;;15.53;66.97
141;BME280;65;48.778;9.160;2023-05-11T16:36:28;98193.59;;;15.40;71.14
141;BME280;65;48.778;9.160;2023-05-11T16:39:13;98188.25;;;15.40;69.25
141;BME280;65;48.778;9.160;2023-05-11T16:41:59;98186.19;;;15.43;69.08
141;BME280;65;48.778;9.160;2023-05-11T16:44:45;98188.19;;;15.30;75.85
141;BME280;65;48.778;9.160;2023-05-11T16:47:31;98191.81;;;15.29;71.15
141;BME280;65;48.778;9.160;2023-05-11T16:50:17;98187.25;;;15.20;72.24
141;BME280;65;48.778;9.160;2023-05-11T16:53:03;98192.34;;;15.12;72.77
141;BME280;65;48.778;9.160;2023-05-11T16:55:49;98193.34;;;15.00;74.32
141;BME280;65;48.778;9.160;2023-05-11T16:58:35;98189.91;;;15.20;71.11
141;BME280;65;48.778;9.160;2023-05-11T17:01:20;98198.03;;;15.18;71.46
141;BME280;65;48.778;9.160;2023-05-11T17:04:06;98195.28;;;15.09;74.10
141;BME280;65;48.778;9.160;2023-05-11T17:06:52;98200.13;;;14.93;73.21
141;BME280;65;48.778;9.160;2023-05-11T17:09:38;98193.72;;;14.95;73.31
141;BME280;65;48.778;9.160;2023-05-11T17:12:24;98195.66;;;14.82;75.55
141;BME280;65;48.778;9.160;2023-05-11T17:15:09;98189.41;;;14.61;76.66
141;BME280;65;48.778;9.160;2023-05-11T17:17:56;98190.50;;;14.58;75.73
141;BME280;65;48.778;9.160;2023-05-11T17:20:42;98194.72;;;14.49;76.38
141;BME280;65;48.778;9.160;2023-05-11T17:23:27;98192.75;;;14.40;75.19
141;BME280;65;48.778;9.160;2023-05-11T17:26:13;98195.53;;;14.28;79.82
141;BME280;65;48.778;9.160;2023-05-11T17:29:00;98194.06;;;14.35;78.89
141;BME280;65;48.778;9.160;2023-05-11T17:31:45;98194.31;;;14.32;78.95
141;BME280;65;48.778;9.160;2023-05-11T17:34:33;98200.13;;;14.37;76.53
141;BME280;65;48.778;9.160;2023-05-11T17:37:19;98202.53;;;14.29;77.10
141;BME280;65;48.778;9.160;2023-05-11T17:40:05;98192.25;;;14.13;81.03
141;BME280;65;48.778;9.160;2023-05-11T17:42:51;98194.91;;;14.13;79.01
141;BME280;65;48.778;9.160;2023-05-11T17:45:37;98200.56;;;14.08;81.68
141;BME280;65;48.778;9.160;2023-05-11T17:48:23;98202.50;;;14.06;79.52
141;BME280;65;48.778;9.160;2023-05-11T17:51:09;98194.78;;;14.03;79.55
141;BME280;65;48.778;9.160;2023-05-11T17:53:55;98201.47;;;13.85;84.61
141;BME280;65;48.778;9.160;2023-05-11T17:56:41;98196.88;;;13.87;82.89
141;BME280;65;48.778;9.160;2023-05-11T17:59:26;98195.91;;;13.77;84.66
141;BME280;65;48.778;9.160;2023-05-11T18:02:12;98195.41;;;13.72;85.68
141;BME280;65;48.778;9.160;2023-05-11T18:04:59;98196.72;;;13.66;85.04
141;BME280;65;48.778;9.160;2023-05-11T18:07:45;98201.41;;;13.63;88.57
141;BME280;65;48.778;9.160;2023-05-11T18:10:30;98204.53;;;13.56;88.74
141;BME280;65;48.778;9.160;2023-05-11T18:13:16;98203.53;;;13.46;87.65
